Time;durP1;ratioP1;P1;durP2;ratioP2;P2;SDS_P1;SDS_P2;PMS_P1;PMS_P2;Temp;Humidity;BMP_temperature;BMP_pressure;BME280_temperature;BME280_humidity;BME280_pressure;Samples;Min_cycle;Max_cycle;Signal;HPM_P1;HPM_P2
2022/08/22 00:00:49;;;;;;;8.48;2.33;;;23.10;85.20;;;;;;5034302;28;20036;-65
2022/08/22 00:03:43;;;;;;;8.98;2.63;;;23.20;85.50;;;;;;5034511;28;20025;-65
2022/08/22 00:06:18;;;;;;;10.65;2.75;;;23.20;85.50;;;;;;5027896;28;20554;-65
2022/08/22 00:08:55;;;;;;;9.05;2.92;;;23.10;85.60;;;;;;5034345;28;20045;-68
2022/08/22 00:11:56;;;;;;;8.27;2.72;;;23.10;85.30;;;;;;5046736;28;20025;-65
2022/08/22 00:14:42;;;;;;;10.15;2.80;;;23.10;85.70;;;;;;5031144;28;20037;-68
2022/08/22 00:17:33;;;;;;;8.45;2.45;;;23.10;85.50;;;;;;5033783;28;20122;-68
2022/08/22 00:20:20;;;;;;;8.18;2.53;;;23.10;85.50;;;;;;5034072;28;20021;-68
2022/08/22 00:22:55;;;;;;;8.88;2.20;;;23.00;86.00;;;;;;5033963;28;20054;-67
2022/08/22 00:25:23;;;;;;;7.88;2.55;;;23.00;85.40;;;;;;5033934;28;20029;-66
2022/08/22 00:28:15;;;;;;;7.18;2.50;;;23.10;85.60;;;;;;5033491;28;20025;-65
2022/08/22 00:30:51;;;;;;;11.20;2.55;;;23.10;85.90;;;;;;5033597;28;20498;-65
2022/08/22 00:33:27;;;;;;;8.43;2.80;;;23.10;85.90;;;;;;5034005;28;20108;-68
2022/08/22 00:36:06;;;;;;;8.02;2.42;;;23.10;85.70;;;;;;5033608;28;20026;-64
2022/08/22 00:38:37;;;;;;;5.63;2.00;;;23.10;85.80;;;;;;4997200;28;1057539;-67
2022/08/22 00:41:23;;;;;;;5.93;1.50;;;23.10;85.90;;;;;;5034328;28;20025;-68
2022/08/22 00:44:07;;;;;;;8.93;2.63;;;23.10;86.00;;;;;;5033379;28;20029;-65
2022/08/22 00:46:50;;;;;;;8.38;2.63;;;23.10;85.90;;;;;;5034540;28;20061;-68
2022/08/22 00:49:40;;;;;;;11.55;2.38;;;23.10;85.80;;;;;;5034622;28;20038;-66
2022/08/22 00:52:43;;;;;;;9.30;2.35;;;23.10;85.70;;;;;;5034811;28;20109;-67
2022/08/22 00:55:14;;;;;;;;;;;23.00;85.60;;;;;;5034937;28;20037;-65
2022/08/22 00:58:01;;;;;;;9.48;3.03;;;23.10;85.60;;;;;;5033926;28;20011;-65
2022/08/22 01:00:30;;;;;;;8.88;2.63;;;23.10;85.70;;;;;;5034679;28;20026;-64
2022/08/22 01:03:15;;;;;;;7.65;2.63;;;23.00;85.60;;;;;;5034430;28;20025;-68
2022/08/22 01:05:49;;;;;;;12.40;3.03;;;22.90;85.70;;;;;;5034387;28;20083;-68
2022/08/22 01:08:53;;;;;;;9.25;3.08;;;22.80;85.80;;;;;;5034419;28;20025;-65
2022/08/22 01:11:40;;;;;;;6.30;2.17;;;22.80;86.00;;;;;;5034284;28;20037;-68
2022/08/22 01:14:28;;;;;;;8.10;2.38;;;22.70;86.20;;;;;;5034450;28;20044;-65
2022/08/22 01:17:21;;;;;;;8.35;2.50;;;22.80;86.40;;;;;;5033932;28;20025;-65
2022/08/22 01:20:14;;;;;;;9.82;2.90;;;22.90;86.30;;;;;;5034107;28;20064;-67
2022/08/22 01:22:52;;;;;;;8.55;2.85;;;22.80;86.10;;;;;;5034091;28;20463;-65
2022/08/22 01:25:20;;;;;;;9.63;2.80;;;22.90;86.50;;;;;;5033981;28;20032;-68
2022/08/22 01:28:04;;;;;;;8.18;2.65;;;22.80;86.20;;;;;;5032491;28;20390;-69
2022/08/22 01:31:07;;;;;;;8.27;2.70;;;22.80;86.20;;;;;;5033750;28;20041;-66
2022/08/22 01:34:03;;;;;;;7.20;2.53;;;22.70;86.30;;;;;;5032361;28;20530;-64
2022/08/22 01:36:57;;;;;;;7.43;2.30;;;22.70;86.40;;;;;;5033720;28;20037;-68
2022/08/22 01:39:41;;;;;;;7.40;2.58;;;22.80;86.70;;;;;;5011293;28;20487;-65
2022/08/22 01:42:40;;;;;;;11.30;2.67;;;22.80;86.50;;;;;;5033451;28;20029;-67
2022/08/22 01:45:44;;;;;;;8.82;2.78;;;22.90;86.80;;;;;;5033870;28;20078;-68
2022/08/22 01:48:10;;;;;;;5.60;1.73;;;22.90;86.60;;;;;;5033531;28;20030;-67
2022/08/22 01:50:41;;;;;;;3.42;1.70;;;22.90;87.10;;;;;;5033555;28;20034;-67
2022/08/22 01:53:11;;;;;;;9.17;2.80;;;22.90;87.50;;;;;;5033403;28;20148;-65
2022/08/22 01:55:56;;;;;;;7.72;2.90;;;22.90;87.20;;;;;;5033193;28;20262;-66
2022/08/22 01:58:34;;;;;;;6.32;2.63;;;22.90;86.90;;;;;;5033243;28;20018;-69
2022/08/22 02:01:31;;;;;;;6.32;2.50;;;22.90;87.10;;;;;;5033618;28;20029;-68
2022/08/22 02:04:27;;;;;;;7.15;2.30;;;22.90;87.10;;;;;;5033403;28;20065;-65
2022/08/22 02:07:10;;;;;;;6.88;2.15;;;22.90;87.20;;;;;;5033201;28;20030;-64
2022/08/22 02:09:53;;;;;;;8.32;2.33;;;22.90;87.20;;;;;;5032875;28;20037;-65
2022/08/22 02:12:40;;;;;;;10.23;2.30;;;22.90;87.00;;;;;;5033418;28;20025;-65
2022/08/22 02:15:25;;;;;;;7.50;2.75;;;22.80;87.20;;;;;;5033224;28;20382;-67
2022/08/22 02:18:03;;;;;;;9.48;2.90;;;22.80;87.00;;;;;;5033267;28;20442;-68
2022/08/22 02:20:38;;;;;;;11.63;3.53;;;22.70;87.10;;;;;;5033334;28;20032;-65
2022/08/22 02:23:33;;;;;;;8.20;3.13;;;22.70;86.90;;;;;;5032665;28;20021;-68
2022/08/22 02:26:01;;;;;;;7.70;2.80;;;22.70;87.10;;;;;;5033104;28;20029;-68
2022/08/22 02:28:39;;;;;;;8.27;2.50;;;22.80;87.20;;;;;;5031708;28;20540;-66
2022/08/22 02:31:11;;;;;;;8.63;2.65;;;22.70;87.10;;;;;;5033121;28;20038;-68
2022/08/22 02:33:41;;;;;;;;;;;22.70;87.10;;;;;;5033331;28;20092;-68
2022/08/22 02:36:45;;;;;;;6.97;2.78;;;22.70;87.00;;;;;;5032984;28;19912;-68
2022/08/22 02:39:50;;;;;;;7.60;2.60;;;22.70;87.00;;;;;;5032492;28;20501;-67
2022/08/22 02:42:54;;;;;;;7.47;2.80;;;22.60;87.30;;;;;;5033039;28;20037;-67
2022/08/22 02:45:23;;;;;;;6.35;2.78;;;22.60;87.40;;;;;;5022044;28;20034;-68
2022/08/22 02:48:00;;;;;;;6.53;2.20;;;22.60;87.20;;;;;;5036282;28;20033;-66
2022/08/22 02:50:44;;;;;;;10.68;3.50;;;22.60;87.40;;;;;;5036811;28;20104;-66
2022/08/22 02:53:47;;;;;;;9.35;3.10;;;22.60;87.50;;;;;;5036920;28;20016;-68
2022/08/22 02:56:24;;;;;;;8.25;3.25;;;22.50;87.60;;;;;;5005937;28;20426;-65
2022/08/22 02:58:52;;;;;;;7.05;2.75;;;22.60;87.80;;;;;;5036612;28;20029;-67
2022/08/22 03:01:26;;;;;;;9.65;3.15;;;22.50;87.70;;;;;;5036899;28;20451;-67
2022/08/22 03:04:20;;;;;;;9.52;3.22;;;22.50;87.80;;;;;;5036708;28;20076;-68
2022/08/22 03:07:00;;;;;;;8.52;3.40;;;22.50;87.90;;;;;;5036336;28;20040;-64
2022/08/22 03:09:37;;;;;;;8.07;2.85;;;22.50;87.90;;;;;;5036521;28;20099;-65
2022/08/22 03:12:14;;;;;;;8.25;2.67;;;22.50;88.00;;;;;;5036670;28;20100;-65
2022/08/22 03:15:00;;;;;;;9.73;3.38;;;22.40;88.20;;;;;;5036520;28;20083;-64
2022/08/22 03:17:36;;;;;;;8.50;3.22;;;22.50;88.30;;;;;;5036444;28;20100;-64
2022/08/22 03:20:39;;;;;;;7.53;2.65;;;22.50;88.30;;;;;;5036512;28;20079;-64
2022/08/22 03:23:10;;;;;;;7.05;2.70;;;22.50;88.40;;;;;;5012982;28;20183;-64
2022/08/22 03:26:10;;;;;;;8.95;3.35;;;22.50;88.40;;;;;;5036212;28;20028;-64
2022/08/22 03:28:44;;;;;;;10.77;3.17;;;22.50;88.60;;;;;;5036347;28;20029;-64
2022/08/22 03:31:19;;;;;;;9.30;3.35;;;22.40;88.20;;;;;;5036188;28;20112;-65
2022/08/22 03:34:05;;;;;;;9.10;3.33;;;22.30;88.20;;;;;;5036206;28;20018;-64
2022/08/22 03:36:33;;;;;;;10.02;3.28;;;22.30;88.60;;;;;;5035400;28;20025;-65
2022/08/22 03:39:16;;;;;;;11.02;3.30;;;22.30;88.70;;;;;;5035991;28;20092;-65
2022/08/22 03:41:49;;;;;;;6.82;2.65;;;22.30;88.70;;;;;;5035981;28;20025;-64
2022/08/22 03:44:20;;;;;;;13.48;3.38;;;22.40;89.10;;;;;;5036093;28;20100;-64
2022/08/22 03:47:00;;;;;;;11.73;3.43;;;22.30;88.70;;;;;;5035677;28;20040;-64
2022/08/22 03:49:46;;;;;;;10.25;3.17;;;22.30;88.80;;;;;;5035835;28;20033;-64
2022/08/22 03:53:07;;;;;;;8.07;2.88;;;22.30;88.80;;;;;;5035741;28;20029;-65
2022/08/22 03:55:43;;;;;;;10.50;3.15;;;22.30;89.00;;;;;;5035672;28;20079;-64
2022/08/22 03:58:39;;;;;;;8.25;2.78;;;22.40;89.00;;;;;;5035576;28;20498;-64
2022/08/22 04:01:27;;;;;;;12.00;3.20;;;22.40;89.20;;;;;;5035498;28;20021;-64
2022/08/22 04:04:07;;;;;;;9.20;3.50;;;22.40;89.00;;;;;;5035320;28;20033;-64
2022/08/22 04:06:44;;;;;;;8.15;2.92;;;22.40;88.90;;;;;;5034127;28;20068;-64
2022/08/22 04:09:38;;;;;;;7.45;3.10;;;22.40;88.90;;;;;;5033493;28;20041;-64
2022/08/22 04:12:46;;;;;;;7.82;3.00;;;22.40;88.90;;;;;;5011860;28;20041;-67
2022/08/22 04:15:46;;;;;;;6.72;2.72;;;22.30;89.00;;;;;;5034817;28;20017;-65
2022/08/22 04:18:49;;;;;;;9.73;3.15;;;22.30;89.10;;;;;;5035425;28;20021;-64
2022/08/22 04:21:24;;;;;;;7.07;2.80;;;22.30;89.10;;;;;;5026913;28;20042;-64
2022/08/22 04:24:24;;;;;;;7.60;2.90;;;22.30;89.10;;;;;;5035289;28;20036;-64
2022/08/22 04:27:09;;;;;;;7.60;3.30;;;22.30;89.10;;;;;;5035009;28;20084;-64
2022/08/22 04:29:53;;;;;;;8.90;3.08;;;22.30;89.80;;;;;;5034869;28;20046;-64
2022/08/22 04:32:24;;;;;;;10.13;3.85;;;22.30;89.30;;;;;;5034985;28;20072;-64
2022/08/22 04:34:56;;;;;;;11.63;3.38;;;22.20;89.00;;;;;;5034976;28;20057;-64
2022/08/22 04:37:37;;;;;;;;;;;22.30;89.80;;;;;;5035345;28;20026;-64
2022/08/22 04:40:18;;;;;;;8.77;3.28;;;22.30;89.10;;;;;;5034831;28;19917;-64
2022/08/22 04:42:57;;;;;;;11.50;3.35;;;22.30;89.20;;;;;;5038430;28;20029;-64
2022/08/22 04:45:32;;;;;;;8.27;3.33;;;22.30;89.30;;;;;;5040732;28;20053;-64
2022/08/22 04:48:32;;;;;;;9.35;3.63;;;22.30;89.30;;;;;;5051802;28;20052;-65
2022/08/22 04:51:25;;;;;;;10.98;3.70;;;22.20;89.20;;;;;;5034501;28;20051;-64
2022/08/22 04:54:23;;;;;;;10.52;3.90;;;22.20;89.30;;;;;;5037368;28;20040;-64
2022/08/22 04:56:58;;;;;;;11.82;4.45;;;22.20;89.20;;;;;;5035805;28;20029;-66
2022/08/22 04:59:24;;;;;;;14.13;5.20;;;22.10;88.80;;;;;;5035256;28;20026;-64
2022/08/22 05:02:04;;;;;;;12.15;4.32;;;22.00;89.00;;;;;;5039004;28;20076;-66
2022/08/22 05:04:52;;;;;;;14.88;4.88;;;22.00;89.20;;;;;;5049433;28;20025;-67
2022/08/22 05:07:26;;;;;;;14.75;4.65;;;22.10;89.60;;;;;;5044875;28;20029;-67
2022/08/22 05:09:58;;;;;;;9.27;3.83;;;22.00;89.30;;;;;;5047383;28;20037;-66
2022/08/22 05:12:29;;;;;;;;;;;22.10;89.40;;;;;;5042328;28;20440;-66
2022/08/22 05:15:12;;;;;;;9.95;4.35;;;22.10;89.60;;;;;;5033947;28;19912;-66
2022/08/22 05:17:41;;;;;;;9.52;3.72;;;22.10;90.00;;;;;;5033774;28;20033;-67
2022/08/22 05:20:12;;;;;;;11.07;4.40;;;22.10;90.10;;;;;;5034149;28;20087;-66
2022/08/22 05:22:43;;;;;;;9.68;3.85;;;22.00;90.30;;;;;;5032684;28;20386;-66
2022/08/22 05:25:28;;;;;;;7.97;3.85;;;22.10;90.40;;;;;;5034007;28;20486;-66
2022/08/22 05:28:10;;;;;;;10.90;4.30;;;22.10;90.80;;;;;;5034127;28;20022;-66
2022/08/22 05:30:38;;;;;;;11.88;5.05;;;22.10;90.60;;;;;;5034030;28;20104;-67
2022/08/22 05:33:06;;;;;;;12.02;4.43;;;22.10;90.50;;;;;;5033454;28;20421;-66
2022/08/22 05:35:36;;;;;;;9.40;3.63;;;22.10;90.60;;;;;;5033842;28;20030;-66
2022/08/22 05:38:05;;;;;;;10.63;4.28;;;22.00;90.50;;;;;;5033421;28;20033;-66
2022/08/22 05:40:34;;;;;;;8.60;3.50;;;22.10;90.50;;;;;;5033916;28;20036;-65
2022/08/22 05:43:00;;;;;;;7.28;3.80;;;22.10;90.90;;;;;;5033438;28;20467;-67
2022/08/22 05:45:27;;;;;;;12.57;3.92;;;22.10;91.00;;;;;;5033521;28;20059;-68
2022/08/22 05:48:31;;;;;;;11.68;4.22;;;22.10;90.80;;;;;;5033628;28;20103;-66
2022/08/22 05:51:10;;;;;;;12.95;4.25;;;22.00;90.70;;;;;;5023862;28;20107;-69
2022/08/22 05:53:45;;;;;;;13.18;4.40;;;22.00;90.80;;;;;;5033569;28;20021;-66
2022/08/22 05:56:29;;;;;;;10.98;4.07;;;22.00;91.00;;;;;;5033509;28;20487;-66
2022/08/22 05:59:00;;;;;;;8.93;3.60;;;22.10;91.10;;;;;;5033294;28;20064;-66
2022/08/22 06:01:34;;;;;;;12.87;4.20;;;22.00;91.20;;;;;;5033207;28;20437;-66
2022/08/22 06:04:05;;;;;;;10.10;4.35;;;22.00;91.30;;;;;;5033342;28;20470;-66
2022/08/22 06:06:37;;;;;;;9.27;3.97;;;22.00;91.20;;;;;;5033280;28;20029;-66
2022/08/22 06:09:17;;;;;;;12.50;4.40;;;22.00;91.10;;;;;;5033373;28;20037;-66
2022/08/22 06:11:51;;;;;;;14.68;5.25;;;22.00;91.10;;;;;;5033434;28;20104;-66
2022/08/22 06:14:39;;;;;;;14.25;5.25;;;22.00;91.30;;;;;;5033094;28;20037;-66
2022/08/22 06:17:05;;;;;;;13.55;5.43;;;22.00;91.50;;;;;;5033233;28;20029;-66
2022/08/22 06:19:34;;;;;;;12.48;4.93;;;21.90;91.50;;;;;;5033159;28;20033;-66
2022/08/22 06:22:01;;;;;;;10.68;5.63;;;22.00;91.50;;;;;;5033037;28;20097;-66
2022/08/22 06:24:30;;;;;;;14.50;5.07;;;21.90;91.50;;;;;;5033302;28;20021;-66
2022/08/22 06:27:03;;;;;;;15.80;5.53;;;22.00;91.50;;;;;;5033100;28;20470;-66
2022/08/22 06:29:35;;;;;;;11.02;5.38;;;22.00;91.30;;;;;;5031388;28;20033;-67
2022/08/22 06:32:09;;;;;;;13.77;5.40;;;22.00;91.30;;;;;;5033141;28;20021;-67
2022/08/22 06:34:38;;;;;;;12.38;5.50;;;22.00;91.40;;;;;;5032456;28;20808;-66
2022/08/22 06:37:10;;;;;;;13.98;5.93;;;22.00;91.40;;;;;;5036467;28;20103;-66
2022/08/22 06:39:42;;;;;;;16.02;5.32;;;22.10;91.50;;;;;;5044113;28;20040;-66
2022/08/22 06:42:10;;;;;;;11.43;5.82;;;22.10;91.50;;;;;;5040155;28;20021;-65
2022/08/22 06:44:59;;;;;;;12.40;5.55;;;22.00;91.80;;;;;;5046521;28;20482;-67
2022/08/22 06:47:30;;;;;;;12.10;5.60;;;22.00;91.40;;;;;;5044074;28;20478;-67
2022/08/22 06:50:03;;;;;;;11.52;5.00;;;22.00;91.40;;;;;;5052584;28;20102;-67
2022/08/22 06:52:36;;;;;;;12.90;5.68;;;22.00;91.50;;;;;;5042478;28;20026;-67
2022/08/22 06:55:04;;;;;;;;;;;22.00;91.60;;;;;;5042094;28;20083;-67
2022/08/22 06:57:34;;;;;;;12.10;5.47;;;22.00;91.40;;;;;;5034476;28;20278;-67
2022/08/22 07:00:08;;;;;;;12.95;5.07;;;22.00;91.40;;;;;;5052363;28;20065;-66
2022/08/22 07:02:37;;;;;;;12.63;5.10;;;22.00;91.40;;;;;;5052753;28;20482;-67
2022/08/22 07:05:05;;;;;;;12.75;5.05;;;22.20;91.30;;;;;;5052499;28;20017;-66
2022/08/22 07:07:30;;;;;;;13.20;5.47;;;22.10;91.10;;;;;;5050831;28;20029;-66
2022/08/22 07:09:56;;;;;;;11.35;4.75;;;22.10;90.90;;;;;;5052473;28;20033;-66
2022/08/22 07:12:30;;;;;;;8.50;4.55;;;22.30;90.80;;;;;;5052396;28;20083;-66
2022/08/22 07:15:35;;;;;;;13.93;4.65;;;22.30;90.70;;;;;;5043126;28;20382;-66
2022/08/22 07:18:13;;;;;;;12.07;4.72;;;22.30;90.90;;;;;;5031372;28;20038;-66
2022/08/22 07:20:43;;;;;;;11.95;4.85;;;22.40;90.80;;;;;;5031116;28;20398;-68
2022/08/22 07:23:12;;;;;;;14.68;5.18;;;22.50;90.70;;;;;;5032410;28;20467;-66
2022/08/22 07:26:06;;;;;;;11.23;4.75;;;22.60;90.60;;;;;;5032500;28;20061;-66
2022/08/22 07:28:58;;;;;;;9.80;4.32;;;22.50;90.40;;;;;;5032029;28;20029;-67
2022/08/22 07:31:30;;;;;;;15.67;5.97;;;22.60;90.50;;;;;;5038209;28;20041;-67
2022/08/22 07:34:09;;;;;;;10.68;4.93;;;22.60;90.30;;;;;;5056400;28;20033;-69
2022/08/22 07:36:47;;;;;;;12.38;6.13;;;22.60;90.40;;;;;;5042503;28;20108;-72
2022/08/22 07:39:28;;;;;;;15.85;5.50;;;22.60;90.50;;;;;;5038134;28;20044;-66
2022/08/22 07:42:05;;;;;;;15.85;5.20;;;22.60;90.60;;;;;;5042262;28;20033;-64
2022/08/22 07:44:37;;;;;;;9.68;4.45;;;22.60;90.40;;;;;;5066292;28;20025;-65
2022/08/22 07:47:09;;;;;;;9.43;3.38;;;22.50;90.20;;;;;;5054518;28;20029;-65
2022/08/22 07:49:44;;;;;;;12.00;5.10;;;22.60;90.70;;;;;;5055445;28;20029;-66
2022/08/22 07:52:12;;;;;;;11.45;3.90;;;22.70;90.60;;;;;;5043519;28;20463;-69
2022/08/22 07:54:47;;;;;;;9.82;3.75;;;22.70;90.60;;;;;;5034422;28;20403;-65
2022/08/22 07:57:25;;;;;;;11.57;4.18;;;22.70;90.60;;;;;;5034841;28;20022;-66
2022/08/22 07:59:53;;;;;;;11.27;3.97;;;22.80;90.50;;;;;;5035758;28;20100;-65
2022/08/22 08:02:21;;;;;;;13.18;5.00;;;22.80;90.20;;;;;;5035501;28;20443;-66
2022/08/22 08:04:50;;;;;;;13.65;4.28;;;22.70;90.00;;;;;;5051777;28;20029;-68
2022/08/22 08:07:19;;;;;;;13.93;4.60;;;22.70;90.30;;;;;;5054842;28;20115;-66
2022/08/22 08:09:52;;;;;;;7.03;3.85;;;22.70;90.20;;;;;;5050976;28;20093;-68
2022/08/22 08:12:20;;;;;;;13.43;5.55;;;22.70;90.10;;;;;;5059888;28;20017;-68
2022/08/22 08:14:51;;;;;;;9.85;4.47;;;22.80;90.10;;;;;;5035363;28;20028;-67
2022/08/22 08:17:22;;;;;;;13.07;4.30;;;22.80;90.10;;;;;;5067132;28;20104;-67
2022/08/22 08:19:49;;;;;;;14.20;5.27;;;22.80;90.20;;;;;;5035318;28;20088;-66
2022/08/22 08:22:20;;;;;;;14.27;5.00;;;22.80;90.10;;;;;;5035032;28;20087;-70
2022/08/22 08:24:48;;;;;;;9.95;4.72;;;22.80;90.20;;;;;;5035238;28;20022;-66
2022/08/22 08:30:13;;;;;;;10.82;4.82;;;22.80;90.00;;;;;;5035056;28;20037;-66
2022/08/22 08:32:41;;;;;;;12.52;4.90;;;22.90;90.20;;;;;;5034110;28;20064;-67
2022/08/22 08:35:24;;;;;;;9.43;3.60;;;22.90;90.20;;;;;;5041756;28;20029;-66
2022/08/22 08:38:00;;;;;;;10.60;4.40;;;22.90;90.30;;;;;;5054553;28;20033;-66
2022/08/22 08:40:31;;;;;;;10.38;4.50;;;23.00;90.30;;;;;;5054210;28;20051;-67
2022/08/22 08:43:37;;;;;;;13.48;4.45;;;23.00;90.10;;;;;;5054495;28;20114;-66
2022/08/22 08:46:13;;;;;;;12.27;4.55;;;23.00;90.00;;;;;;5024458;28;20466;-67
2022/08/22 08:49:09;;;;;;;13.32;5.70;;;23.10;89.90;;;;;;5053749;28;20024;-66
2022/08/22 08:52:12;;;;;;;12.10;5.05;;;23.00;89.80;;;;;;5041849;28;20471;-65
2022/08/22 08:54:48;;;;;;;12.32;4.55;;;23.00;90.10;;;;;;5054082;28;20037;-65
2022/08/22 08:57:41;;;;;;;8.15;4.30;;;23.10;90.00;;;;;;5042215;28;20024;-67
2022/08/22 09:00:13;;;;;;;13.35;4.95;;;23.10;89.80;;;;;;5074282;28;20029;-66
2022/08/22 09:02:54;;;;;;;10.90;5.60;;;23.10;90.10;;;;;;5068714;28;20020;-67
2022/08/22 09:05:46;;;;;;;11.18;4.90;;;23.10;89.80;;;;;;5073912;28;20032;-67
2022/08/22 09:08:30;;;;;;;13.00;4.82;;;23.20;89.60;;;;;;5074029;28;20013;-67
2022/08/22 09:11:43;;;;;;;11.57;4.95;;;23.20;89.40;;;;;;5061500;28;20474;-67
2022/08/22 09:14:15;;;;;;;11.75;4.82;;;23.20;89.00;;;;;;5045357;28;20033;-67
2022/08/22 09:16:55;;;;;;;12.25;4.43;;;23.10;89.20;;;;;;5067055;28;20067;-68
2022/08/22 09:19:39;;;;;;;14.20;5.50;;;23.20;90.00;;;;;;5037952;28;20129;-67
2022/08/22 09:22:45;;;;;;;10.13;3.80;;;23.30;89.70;;;;;;5046148;28;20021;-68
2022/08/22 09:25:37;;;;;;;10.93;4.53;;;23.30;90.10;;;;;;5051811;28;20029;-67
2022/08/22 09:28:40;;;;;;;8.63;4.20;;;23.30;89.20;;;;;;5068726;28;20119;-67
2022/08/22 09:31:26;;;;;;;9.95;4.30;;;23.30;88.70;;;;;;4957247;28;20069;-67
2022/08/22 09:34:02;;;;;;;10.57;3.78;;;23.30;89.10;;;;;;5043914;28;20100;-69
2022/08/22 09:36:45;;;;;;;9.27;3.75;;;23.40;88.90;;;;;;5044850;28;20013;-66
2022/08/22 09:39:23;;;;;;;8.80;3.90;;;23.40;88.80;;;;;;5048371;28;20029;-67
2022/08/22 09:42:09;;;;;;;15.65;4.80;;;23.40;88.50;;;;;;5052874;28;20056;-66
2022/08/22 09:44:54;;;;;;;12.15;4.88;;;23.50;88.30;;;;;;5046622;28;20494;-68
2022/08/22 09:47:32;;;;;;;12.65;4.50;;;23.40;88.60;;;;;;5039897;28;20025;-69
2022/08/22 09:50:19;;;;;;;16.60;4.85;;;23.60;87.60;;;;;;5039721;28;20037;-68
2022/08/22 09:53:09;;;;;;;13.52;4.13;;;23.60;87.70;;;;;;5041244;28;20066;-70
2022/08/22 09:55:35;;;;;;;8.75;3.00;;;23.50;88.00;;;;;;5002252;28;20033;-70
2022/08/22 09:58:25;;;;;;;10.20;4.53;;;23.60;88.90;;;;;;5043370;28;20032;-68
2022/08/22 10:01:07;;;;;;;11.70;4.00;;;23.60;87.90;;;;;;5013953;28;20115;-67
2022/08/22 10:04:08;;;;;;;9.57;3.33;;;23.60;87.20;;;;;;5036197;28;20038;-68
2022/08/22 10:06:59;;;;;;;10.88;3.70;;;23.70;86.00;;;;;;5032944;28;20037;-69
2022/08/22 10:09:38;;;;;;;11.52;2.97;;;23.70;83.90;;;;;;5038278;28;20370;-67
2022/08/22 10:12:13;;;;;;;6.22;2.17;;;23.80;83.30;;;;;;5047708;28;20048;-66
2022/08/22 10:14:58;;;;;;;9.15;2.65;;;23.70;87.80;;;;;;5041950;28;20025;-68
2022/08/22 10:17:35;;;;;;;7.53;2.00;;;23.70;87.00;;;;;;5041525;28;20363;-63
2022/08/22 10:20:13;;;;;;;8.85;2.60;;;23.80;87.80;;;;;;5043199;28;20036;-68
2022/08/22 10:22:58;;;;;;;9.50;2.70;;;23.80;81.90;;;;;;5038364;28;20029;-67
2022/08/22 10:25:46;;;;;;;8.60;2.70;;;23.80;80.10;;;;;;5037028;28;20030;-72
2022/08/22 10:28:21;;;;;;;10.75;3.30;;;23.90;80.80;;;;;;5037052;28;20033;-68
2022/08/22 10:31:00;;;;;;;8.85;2.67;;;23.90;82.30;;;;;;5035559;28;20368;-67
2022/08/22 10:33:32;;;;;;;7.45;2.25;;;24.00;80.90;;;;;;5034719;28;20033;-67
2022/08/22 10:36:09;;;;;;;12.13;2.20;;;24.00;86.20;;;;;;5036341;28;20033;-68
2022/08/22 10:38:38;;;;;;;5.55;1.77;;;23.90;85.20;;;;;;5035225;28;20042;-66
2022/08/22 10:41:10;;;;;;;5.30;2.35;;;24.00;86.00;;;;;;5033673;28;20039;-66
2022/08/22 10:44:14;;;;;;;8.23;2.28;;;24.00;85.70;;;;;;5039222;28;20044;-68
2022/08/22 10:47:03;;;;;;;9.38;2.00;;;24.00;84.70;;;;;;4979874;28;20070;-65
2022/08/22 10:49:40;;;;;;;8.48;2.30;;;24.00;80.50;;;;;;5034109;28;20127;-65
2022/08/22 10:52:13;;;;;;;5.63;2.10;;;24.00;78.80;;;;;;5038145;28;20067;-67
2022/08/22 10:54:56;;;;;;;6.43;2.17;;;24.00;77.40;;;;;;5042887;28;20025;-66
2022/08/22 10:57:36;;;;;;;6.47;1.75;;;24.00;76.80;;;;;;5042001;28;20481;-68
2022/08/22 11:00:31;;;;;;;6.68;2.28;;;24.00;82.00;;;;;;5043914;28;20032;-67
2022/08/22 11:03:08;;;;;;;8.38;2.70;;;24.10;79.40;;;;;;5040894;28;20033;-67
2022/08/22 11:05:36;;;;;;;6.90;2.10;;;24.10;78.30;;;;;;5036599;28;20033;-66
2022/08/22 11:08:32;;;;;;;5.57;2.38;;;24.20;82.20;;;;;;5047121;28;20028;-67
2022/08/22 11:11:27;;;;;;;7.60;2.63;;;24.10;79.60;;;;;;5045975;28;20319;-63
2022/08/22 11:14:15;;;;;;;7.38;2.22;;;24.20;80.60;;;;;;5039109;28;20040;-66
2022/08/22 11:16:47;;;;;;;6.38;1.98;;;24.20;79.00;;;;;;5045266;28;20053;-67
2022/08/22 11:19:42;;;;;;;5.65;2.05;;;24.20;82.20;;;;;;5036965;28;20032;-65
2022/08/22 11:22:26;;;;;;;4.82;1.67;;;24.20;82.70;;;;;;5040810;28;20119;-67
2022/08/22 11:25:40;;;;;;;6.50;1.90;;;24.30;81.40;;;;;;5043831;28;20103;-66
2022/08/22 11:28:18;;;;;;;5.40;2.20;;;24.20;82.00;;;;;;4973248;28;20477;-68
2022/08/22 11:31:02;;;;;;;8.05;2.28;;;24.30;80.40;;;;;;5042596;28;20450;-67
2022/08/22 11:33:43;;;;;;;8.30;2.30;;;24.30;75.60;;;;;;5043488;28;20029;-67
2022/08/22 11:36:21;;;;;;;4.00;1.80;;;24.30;77.20;;;;;;5046849;28;20623;-66
2022/08/22 11:39:15;;;;;;;7.63;2.25;;;24.30;79.80;;;;;;5040662;28;20025;-64
2022/08/22 11:41:48;;;;;;;5.75;1.90;;;24.30;78.90;;;;;;5037165;28;20084;-65
2022/08/22 11:44:26;;;;;;;6.00;1.75;;;24.30;78.40;;;;;;5041324;28;20429;-64
2022/08/22 11:46:56;;;;;;;5.35;1.58;;;24.30;75.10;;;;;;5050520;28;20051;-66
2022/08/22 11:49:34;;;;;;;6.13;2.00;;;24.40;72.50;;;;;;5042360;28;20037;-63
2022/08/22 11:52:12;;;;;;;5.35;2.00;;;24.40;76.60;;;;;;5048570;28;20025;-65
2022/08/22 11:54:59;;;;;;;8.27;1.90;;;24.40;77.50;;;;;;5048050;28;20067;-65
2022/08/22 11:57:42;;;;;;;6.55;2.28;;;24.40;80.70;;;;;;5043095;28;20047;-65
2022/08/22 12:00:25;;;;;;;5.15;1.73;;;24.50;75.50;;;;;;5036976;28;20381;-68
2022/08/22 12:03:14;;;;;;;4.25;1.58;;;24.60;72.10;;;;;;5037864;28;20026;-64
2022/08/22 12:05:49;;;;;;;4.60;1.63;;;24.80;69.20;;;;;;5045321;28;20029;-63
2022/08/22 12:08:34;;;;;;;5.72;1.88;;;24.80;69.70;;;;;;5040642;28;20028;-67
2022/08/22 12:11:16;;;;;;;4.82;1.92;;;24.70;73.30;;;;;;5035524;28;20053;-64
2022/08/22 12:14:01;;;;;;;6.03;1.50;;;24.70;77.10;;;;;;5040444;28;20124;-66
2022/08/22 12:16:55;;;;;;;5.47;1.88;;;24.70;72.70;;;;;;5041294;28;20029;-64
2022/08/22 12:19:45;;;;;;;3.70;1.52;;;24.80;70.60;;;;;;5038177;28;20037;-64
2022/08/22 12:22:46;;;;;;;5.05;1.70;;;24.80;70.90;;;;;;5039052;28;20076;-61
2022/08/22 12:25:32;;;;;;;4.10;1.65;;;24.90;71.10;;;;;;5033321;28;20451;-65
2022/08/22 12:28:07;;;;;;;6.47;1.33;;;24.90;68.60;;;;;;5045922;28;20029;-65
2022/08/22 12:30:44;;;;;;;6.70;1.80;;;24.90;68.20;;;;;;5039217;28;20045;-70
2022/08/22 12:33:18;;;;;;;5.38;1.42;;;24.90;67.30;;;;;;5037418;28;20065;-67
2022/08/22 12:35:53;;;;;;;6.63;1.48;;;24.90;68.00;;;;;;5033732;28;20017;-67
2022/08/22 12:38:34;;;;;;;4.97;1.90;;;24.90;68.00;;;;;;5042551;28;20065;-66
2022/08/22 12:41:43;;;;;;;4.03;1.35;;;25.00;68.60;;;;;;5043756;28;20033;-65
2022/08/22 12:44:43;;;;;;;6.75;1.50;;;24.90;68.40;;;;;;5049148;28;20025;-66
2022/08/22 12:47:27;;;;;;;6.85;1.60;;;25.00;67.40;;;;;;5047771;28;20033;-66
2022/08/22 12:50:17;;;;;;;5.68;1.80;;;25.00;67.70;;;;;;5046580;28;20044;-65
2022/08/22 12:53:19;;;;;;;7.82;1.80;;;25.00;67.90;;;;;;5046681;28;20104;-64
2022/08/22 12:56:22;;;;;;;4.20;1.73;;;24.90;71.00;;;;;;5037505;28;20514;-67
2022/08/22 12:59:12;;;;;;;5.03;1.63;;;24.90;73.60;;;;;;5033757;28;20029;-67
2022/08/22 13:01:46;;;;;;;7.60;2.15;;;24.90;71.40;;;;;;5037888;28;20478;-68
2022/08/22 13:04:24;;;;;;;7.75;2.15;;;25.00;67.90;;;;;;5041472;28;20056;-68
2022/08/22 13:06:59;;;;;;;6.50;1.90;;;25.00;71.00;;;;;;5046004;28;20074;-68
2022/08/22 13:09:38;;;;;;;5.25;2.00;;;25.00;69.80;;;;;;5050550;28;20444;-67
2022/08/22 13:12:27;;;;;;;6.72;1.80;;;25.00;69.10;;;;;;5053652;28;20101;-67
2022/08/22 13:15:00;;;;;;;5.18;1.63;;;25.00;71.30;;;;;;5053519;28;20532;-68
2022/08/22 13:17:27;;;;;;;5.25;2.25;;;25.00;70.70;;;;;;5052666;28;20025;-67
2022/08/22 13:20:13;;;;;;;4.78;1.88;;;25.00;69.10;;;;;;5054164;28;20025;-69
2022/08/22 13:22:41;;;;;;;8.35;2.42;;;25.00;71.30;;;;;;5054096;28;20020;-69
2022/08/22 13:25:24;;;;;;;7.30;1.80;;;25.00;73.10;;;;;;5053836;28;20112;-67
2022/08/22 13:27:52;;;;;;;5.20;1.95;;;24.90;73.70;;;;;;5053848;28;20035;-68
2022/08/22 13:30:28;;;;;;;8.00;2.10;;;24.90;73.80;;;;;;5051587;28;20571;-69
2022/08/22 13:33:11;;;;;;;7.13;2.38;;;25.00;72.70;;;;;;5053645;28;20025;-69
2022/08/22 13:35:54;;;;;;;6.13;2.50;;;25.10;70.40;;;;;;5053771;28;20047;-68
2022/08/22 13:38:38;;;;;;;10.10;2.33;;;25.20;69.50;;;;;;5053660;28;20489;-67
2022/08/22 13:41:06;;;;;;;5.10;2.05;;;25.20;69.70;;;;;;5054002;28;20029;-68
2022/08/22 13:43:53;;;;;;;8.45;2.10;;;25.10;71.80;;;;;;5053567;28;20076;-68
2022/08/22 13:46:25;;;;;;;7.00;2.03;;;25.10;72.80;;;;;;5053857;28;20025;-68
2022/08/22 13:48:53;;;;;;;6.45;2.40;;;25.10;72.20;;;;;;5053450;28;20029;-68
2022/08/22 13:51:38;;;;;;;7.80;2.60;;;25.10;71.10;;;;;;5053751;28;20025;-69
2022/08/22 13:54:10;;;;;;;7.20;2.38;;;25.20;70.10;;;;;;5053371;28;20016;-67
2022/08/22 13:57:08;;;;;;;6.38;2.33;;;25.30;69.00;;;;;;5053606;28;20067;-68
2022/08/22 13:59:49;;;;;;;6.72;2.45;;;25.30;70.10;;;;;;5053347;28;20025;-68